Time;durP1;ratioP1;P1;durP2;ratioP2;P2;SDS_P1;SDS_P2;PMS_P1;PMS_P2;Temp;Humidity;BMP_temperature;BMP_pressure;BME280_temperature;BME280_humidity;BME280_pressure;Samples;Min_cycle;Max_cycle;Signal;HPM_P1;HPM_P2
2022/01/04 00:00:30;;;;;;;4.30;1.40;;;8.40;99.90;;;;;;5006301;28;20026;-66
2022/01/04 00:02:55;;;;;;;5.57;1.55;;;8.40;99.90;;;;;;5008630;28;20114;-65
2022/01/04 00:05:22;;;;;;;5.95;1.55;;;8.40;99.90;;;;;;5003823;28;20057;-65
2022/01/04 00:07:48;;;;;;;8.88;1.55;;;8.40;99.90;;;;;;5005371;28;20540;-65
2022/01/04 00:10:20;;;;;;;7.68;2.55;;;8.40;99.90;;;;;;5003401;28;20046;-65
2022/01/04 00:15:31;;;;;;;5.88;2.10;;;8.30;99.90;;;;;;5006011;28;20080;-69
2022/01/04 00:17:56;;;;;;;9.93;2.45;;;8.30;99.90;;;;;;5006249;28;20029;-65
2022/01/04 00:20:22;;;;;;;3.13;1.65;;;8.30;99.90;;;;;;5002087;28;20792;-65
2022/01/04 00:22:48;;;;;;;3.42;1.35;;;8.30;99.90;;;;;;5007272;28;20026;-65
2022/01/04 00:25:15;;;;;;;5.95;1.80;;;8.30;99.90;;;;;;5005023;28;20034;-65
2022/01/04 00:27:41;;;;;;;4.43;1.88;;;8.30;99.90;;;;;;5004842;28;20052;-65
2022/01/04 00:30:07;;;;;;;7.25;1.50;;;8.30;99.90;;;;;;5002096;28;20634;-65
2022/01/04 00:32:33;;;;;;;2.85;1.58;;;8.20;99.90;;;;;;5005896;28;20061;-66
2022/01/04 00:34:58;;;;;;;2.90;1.45;;;8.20;99.90;;;;;;5004504;28;20038;-65
2022/01/04 00:37:24;;;;;;;5.40;1.48;;;8.20;99.90;;;;;;5002154;28;20117;-65
2022/01/04 00:39:50;;;;;;;6.93;1.63;;;8.20;99.90;;;;;;5005254;28;20481;-65
2022/01/04 00:42:15;;;;;;;3.47;1.48;;;8.20;99.90;;;;;;5006840;28;20018;-65
2022/01/04 00:44:53;;;;;;;3.55;1.63;;;8.20;99.90;;;;;;5003788;28;20633;-65
2022/01/04 00:47:26;;;;;;;3.97;1.52;;;8.20;99.90;;;;;;5003031;28;20022;-66
2022/01/04 00:49:51;;;;;;;3.22;1.70;;;8.20;99.90;;;;;;5006270;28;20386;-65
2022/01/04 00:52:17;;;;;;;2.08;1.55;;;8.20;99.90;;;;;;5006087;28;20033;-65
2022/01/04 00:54:43;;;;;;;2.60;1.40;;;8.20;99.90;;;;;;5005392;28;20084;-65
2022/01/04 00:57:09;;;;;;;2.58;1.70;;;8.10;99.90;;;;;;5004951;28;20022;-65
2022/01/04 00:59:34;;;;;;;4.72;2.03;;;8.20;99.90;;;;;;5005569;28;20489;-65
2022/01/04 01:02:00;;;;;;;4.07;1.67;;;8.10;99.90;;;;;;5004187;28;20089;-65
2022/01/04 01:04:25;;;;;;;2.42;1.17;;;8.10;99.90;;;;;;5002425;28;20026;-65
2022/01/04 01:06:51;;;;;;;4.18;1.45;;;8.10;99.90;;;;;;5003036;28;20065;-65
2022/01/04 01:09:30;;;;;;;2.45;1.70;;;8.10;99.90;;;;;;5004736;28;20473;-65
2022/01/04 01:11:55;;;;;;;4.32;1.60;;;8.20;99.90;;;;;;5005464;28;20025;-65
2022/01/04 01:14:21;;;;;;;2.67;1.58;;;8.10;99.90;;;;;;5003069;28;20034;-65
2022/01/04 01:16:47;;;;;;;4.10;1.70;;;8.10;99.90;;;;;;5000250;28;20037;-65
2022/01/04 01:19:28;;;;;;;4.88;1.63;;;8.10;99.90;;;;;;5003173;28;20489;-65
2022/01/04 01:21:54;;;;;;;2.28;1.42;;;8.00;99.90;;;;;;5004496;28;20551;-65
2022/01/04 01:24:19;;;;;;;3.72;1.52;;;8.10;99.90;;;;;;5005148;28;20163;-65
2022/01/04 01:26:45;;;;;;;3.63;1.50;;;8.00;99.90;;;;;;5004684;28;20033;-66
2022/01/04 01:29:11;;;;;;;4.00;1.88;;;8.00;99.90;;;;;;5002066;28;20092;-65
2022/01/04 01:31:37;;;;;;;4.95;1.40;;;8.00;99.90;;;;;;5004411;28;20058;-65
2022/01/04 01:34:03;;;;;;;4.07;1.48;;;8.00;99.90;;;;;;5009794;28;20604;-66
2022/01/04 01:36:29;;;;;;;2.28;1.30;;;8.00;99.90;;;;;;5002327;28;20180;-65
2022/01/04 01:38:54;;;;;;;4.35;1.58;;;8.00;99.90;;;;;;5004220;28;20522;-65
2022/01/04 01:41:20;;;;;;;4.22;1.58;;;8.00;99.90;;;;;;5004114;28;20553;-65
2022/01/04 01:43:47;;;;;;;2.80;1.60;;;7.90;99.90;;;;;;5004708;28;20033;-66
2022/01/04 01:46:13;;;;;;;3.13;1.60;;;7.90;99.90;;;;;;5004423;28;20056;-65
2022/01/04 01:48:38;;;;;;;3.60;1.60;;;7.80;99.90;;;;;;5000286;28;20118;-65
2022/01/04 01:51:04;;;;;;;27.50;3.33;;;7.80;99.90;;;;;;5000640;28;20762;-65
2022/01/04 01:53:30;;;;;;;8.13;1.73;;;7.80;99.90;;;;;;5004794;28;20471;-65
2022/01/04 01:55:56;;;;;;;3.25;1.50;;;7.80;99.90;;;;;;5004519;28;20076;-65
2022/01/04 01:58:21;;;;;;;4.85;1.77;;;7.80;99.90;;;;;;5001796;28;20454;-65
2022/01/04 02:00:47;;;;;;;4.53;1.80;;;7.80;99.90;;;;;;5005040;28;20045;-65
2022/01/04 02:03:13;;;;;;;5.22;1.67;;;7.80;99.90;;;;;;5003925;28;20096;-66
2022/01/04 02:05:39;;;;;;;6.80;1.80;;;7.80;99.90;;;;;;5005078;28;20099;-65
2022/01/04 02:08:06;;;;;;;4.43;1.75;;;7.70;99.90;;;;;;5002694;28;20504;-65
2022/01/04 02:10:47;;;;;;;3.03;1.70;;;7.70;99.90;;;;;;5003227;28;20077;-65
2022/01/04 02:13:13;;;;;;;;;;;7.60;99.90;;;;;;5003348;28;20183;-65
2022/01/04 02:15:39;;;;;;;10.15;2.95;;;7.60;99.90;;;;;;5002444;28;20293;-66
2022/01/04 02:18:06;;;;;;;5.88;2.00;;;7.60;99.90;;;;;;5002976;28;20022;-66
2022/01/04 02:20:31;;;;;;;4.32;2.30;;;7.60;99.90;;;;;;5001772;28;20034;-65
2022/01/04 02:22:57;;;;;;;9.77;2.25;;;7.50;99.90;;;;;;5000230;28;20065;-65
2022/01/04 02:25:23;;;;;;;5.07;3.10;;;7.50;99.90;;;;;;5002893;28;20037;-65
2022/01/04 02:27:50;;;;;;;7.70;3.03;;;7.40;99.90;;;;;;5005386;28;20041;-65
2022/01/04 02:30:19;;;;;;;4.95;3.00;;;7.50;99.90;;;;;;5005811;28;20022;-66
2022/01/04 02:32:46;;;;;;;5.75;2.60;;;7.40;99.90;;;;;;5001614;28;20482;-66
2022/01/04 02:35:14;;;;;;;5.20;3.03;;;7.40;99.90;;;;;;5002223;28;20498;-66
2022/01/04 02:37:40;;;;;;;7.95;4.70;;;7.40;99.90;;;;;;5003210;28;20022;-66
2022/01/04 02:40:07;;;;;;;4.78;2.95;;;7.40;99.90;;;;;;5002892;28;20029;-66
2022/01/04 02:42:33;;;;;;;7.65;3.53;;;7.40;99.90;;;;;;5002909;28;20124;-66
2022/01/04 02:45:02;;;;;;;5.13;2.53;;;7.30;99.90;;;;;;5002869;28;20100;-65
2022/01/04 02:47:28;;;;;;;6.82;2.78;;;7.40;99.90;;;;;;5003840;28;20053;-66
2022/01/04 02:49:55;;;;;;;5.80;2.70;;;7.40;99.90;;;;;;5001759;28;20037;-65
2022/01/04 02:52:21;;;;;;;7.30;2.95;;;7.40;99.90;;;;;;5003161;28;20088;-65
2022/01/04 02:54:52;;;;;;;6.78;2.78;;;7.30;99.90;;;;;;4999381;28;20033;-65
2022/01/04 02:57:18;;;;;;;5.28;2.53;;;7.30;99.90;;;;;;5005948;28;20441;-65
2022/01/04 02:59:53;;;;;;;4.05;2.50;;;7.30;99.90;;;;;;4999680;28;20050;-66
2022/01/04 03:02:18;;;;;;;6.65;2.78;;;7.40;99.90;;;;;;5001677;28;20041;-66
2022/01/04 03:04:44;;;;;;;5.15;2.38;;;7.40;99.90;;;;;;5002704;28;20022;-66
2022/01/04 03:07:10;;;;;;;4.32;3.20;;;7.40;99.90;;;;;;5001730;28;20061;-65
2022/01/04 03:09:35;;;;;;;3.90;2.80;;;7.40;99.90;;;;;;5005330;28;20456;-66
2022/01/04 03:12:01;;;;;;;6.40;2.97;;;7.40;99.90;;;;;;4998400;28;20032;-66
2022/01/04 03:14:27;;;;;;;7.88;3.88;;;7.40;99.90;;;;;;5001342;28;20084;-66
2022/01/04 03:16:52;;;;;;;6.78;3.58;;;7.30;99.90;;;;;;4998934;28;20030;-66
2022/01/04 03:19:24;;;;;;;7.40;3.67;;;7.30;99.90;;;;;;5001590;28;20022;-66
2022/01/04 03:21:50;;;;;;;9.73;4.82;;;7.30;99.90;;;;;;5001303;28;20490;-66
2022/01/04 03:24:25;;;;;;;4.32;3.67;;;7.30;99.90;;;;;;5004892;28;20045;-66
2022/01/04 03:26:50;;;;;;;5.82;3.85;;;7.30;99.90;;;;;;5001212;28;20038;-66
2022/01/04 03:29:26;;;;;;;6.60;4.38;;;7.30;99.90;;;;;;5001672;28;20838;-66
2022/01/04 03:31:52;;;;;;;8.40;3.75;;;7.30;99.90;;;;;;5001276;28;20049;-66
2022/01/04 03:34:25;;;;;;;6.70;4.50;;;7.40;99.90;;;;;;5005752;28;20033;-66
2022/01/04 03:36:56;;;;;;;6.03;3.90;;;7.40;99.90;;;;;;5005312;28;20792;-66
2022/01/04 03:39:25;;;;;;;8.82;4.40;;;7.40;99.90;;;;;;5004231;28;20076;-66
2022/01/04 03:41:56;;;;;;;4.93;3.63;;;7.40;99.90;;;;;;5001412;28;20022;-66
2022/01/04 03:44:28;;;;;;;13.38;5.95;;;7.40;99.90;;;;;;5005092;28;20029;-66
2022/01/04 03:46:55;;;;;;;6.05;4.03;;;7.40;99.90;;;;;;5005020;28;20434;-66
2022/01/04 03:49:22;;;;;;;5.32;3.30;;;7.40;99.90;;;;;;5008313;28;20088;-65
2022/01/04 03:51:48;;;;;;;6.13;4.28;;;7.40;99.90;;;;;;5008663;28;20037;-66
2022/01/04 03:54:14;;;;;;;4.13;3.53;;;7.40;99.90;;;;;;5006925;28;20030;-65
2022/01/04 03:56:39;;;;;;;9.45;4.30;;;7.40;99.90;;;;;;5005559;28;20037;-65
2022/01/04 03:59:14;;;;;;;6.47;3.63;;;7.40;99.90;;;;;;5006139;28;20355;-65
2022/01/04 04:01:40;;;;;;;7.10;4.03;;;7.40;99.90;;;;;;5019228;28;20081;-66
2022/01/04 04:04:12;;;;;;;8.45;4.68;;;7.40;99.90;;;;;;5005883;28;20956;-65
2022/01/04 04:06:37;;;;;;;7.30;4.43;;;7.40;99.90;;;;;;5016096;28;20105;-65
2022/01/04 04:09:03;;;;;;;6.35;3.80;;;7.50;99.90;;;;;;5004849;28;20054;-66
2022/01/04 04:11:29;;;;;;;7.78;3.88;;;7.50;99.90;;;;;;5004585;28;20026;-66
2022/01/04 04:13:54;;;;;;;5.82;3.90;;;7.50;99.90;;;;;;5003772;28;20068;-65
2022/01/04 04:16:20;;;;;;;6.43;4.25;;;7.50;99.90;;;;;;5001081;28;20120;-66
2022/01/04 04:18:46;;;;;;;7.45;4.50;;;7.50;99.90;;;;;;4993595;28;20038;-66
2022/01/04 04:21:14;;;;;;;7.35;3.70;;;7.50;99.90;;;;;;4998070;28;20038;-66
2022/01/04 04:23:46;;;;;;;5.68;3.58;;;7.50;99.90;;;;;;5003941;28;20029;-66
2022/01/04 04:26:11;;;;;;;5.18;3.42;;;7.50;99.90;;;;;;5002789;28;20033;-66
2022/01/04 04:28:37;;;;;;;6.78;4.07;;;7.50;99.90;;;;;;4999203;28;20018;-66
2022/01/04 04:31:18;;;;;;;4.38;3.97;;;7.60;99.90;;;;;;4995689;28;20033;-66
2022/01/04 04:33:46;;;;;;;5.90;3.60;;;7.60;99.90;;;;;;4999685;28;20048;-66
2022/01/04 04:36:12;;;;;;;4.25;2.80;;;7.60;99.90;;;;;;5000307;28;20030;-66
2022/01/04 04:38:38;;;;;;;3.22;2.92;;;7.60;99.90;;;;;;5008071;28;20072;-65
2022/01/04 04:41:19;;;;;;;3.53;3.13;;;7.70;99.90;;;;;;4996908;28;20100;-65
2022/01/04 04:43:45;;;;;;;3.20;2.22;;;7.70;99.90;;;;;;5002113;28;20486;-66
2022/01/04 04:46:11;;;;;;;2.03;1.48;;;7.80;99.90;;;;;;5003193;28;20034;-65
2022/01/04 04:48:37;;;;;;;1.80;1.30;;;7.90;99.90;;;;;;5004761;28;20022;-66
2022/01/04 04:51:02;;;;;;;1.60;1.10;;;7.90;99.90;;;;;;5003413;28;20025;-66
2022/01/04 04:53:28;;;;;;;7.20;3.17;;;8.00;99.90;;;;;;5005172;28;20026;-66
2022/01/04 04:55:54;;;;;;;1.38;1.17;;;8.00;99.90;;;;;;5001288;28;20374;-66
2022/01/04 04:58:19;;;;;;;1.45;1.10;;;8.10;99.90;;;;;;5003728;28;20021;-66
2022/01/04 05:00:45;;;;;;;0.82;0.80;;;8.20;99.90;;;;;;5002756;28;20659;-66
2022/01/04 05:03:10;;;;;;;1.83;1.10;;;8.20;99.90;;;;;;5004613;28;20033;-66
2022/01/04 05:05:36;;;;;;;2.10;1.10;;;8.30;99.90;;;;;;5003091;28;20049;-66
2022/01/04 05:08:02;;;;;;;5.45;1.00;;;8.40;99.90;;;;;;5004142;28;20025;-66
2022/01/04 05:10:27;;;;;;;2.05;0.80;;;8.50;99.90;;;;;;5000665;28;20141;-64
2022/01/04 05:12:53;;;;;;;1.30;0.85;;;8.50;99.90;;;;;;5005573;28;20022;-65
2022/01/04 05:15:21;;;;;;;1.20;0.90;;;8.50;99.90;;;;;;5002949;28;20084;-65
2022/01/04 05:17:47;;;;;;;0.82;0.70;;;8.60;99.90;;;;;;5003001;28;20034;-66
2022/01/04 05:20:13;;;;;;;1.65;1.42;;;8.60;99.90;;;;;;5004303;28;20037;-66
2022/01/04 05:22:39;;;;;;;0.70;0.70;;;8.60;99.90;;;;;;5003550;28;20034;-65
2022/01/04 05:25:25;;;;;;;0.60;0.60;;;8.70;99.90;;;;;;5003635;28;20026;-66
2022/01/04 05:27:51;;;;;;;2.28;0.80;;;8.70;99.90;;;;;;4999164;28;20027;-66
2022/01/04 05:30:16;;;;;;;0.70;0.70;;;8.70;99.90;;;;;;5004403;28;20056;-66
2022/01/04 05:32:42;;;;;;;0.93;0.80;;;8.80;99.90;;;;;;5004779;28;20022;-66
2022/01/04 05:35:23;;;;;;;0.85;0.80;;;8.80;99.90;;;;;;5000609;28;20030;-66
2022/01/04 05:37:49;;;;;;;0.77;0.77;;;8.80;99.90;;;;;;5002562;28;20033;-66
2022/01/04 05:40:23;;;;;;;1.25;0.80;;;8.80;99.90;;;;;;5002960;28;20030;-66
2022/01/04 05:42:49;;;;;;;0.82;0.80;;;8.90;99.90;;;;;;5000126;28;20022;-66
2022/01/04 05:45:15;;;;;;;1.40;0.80;;;8.90;99.90;;;;;;5006204;28;20105;-67
2022/01/04 05:47:40;;;;;;;2.35;1.08;;;8.90;99.90;;;;;;5005128;28;20065;-66
2022/01/04 05:50:07;;;;;;;1.20;0.90;;;8.90;99.90;;;;;;5001527;28;20405;-66
2022/01/04 05:52:33;;;;;;;1.63;1.05;;;8.90;99.90;;;;;;5000975;28;20026;-66
2022/01/04 05:55:02;;;;;;;1.42;0.90;;;9.00;99.90;;;;;;5000670;28;20047;-66
2022/01/04 05:57:28;;;;;;;1.17;1.00;;;9.00;99.90;;;;;;5001201;28;20030;-66
2022/01/04 05:59:57;;;;;;;1.00;0.93;;;9.00;99.90;;;;;;5003939;28;20104;-66
2022/01/04 06:02:23;;;;;;;1.20;1.10;;;9.00;99.90;;;;;;5001351;28;20038;-66
2022/01/04 06:04:58;;;;;;;0.82;0.82;;;9.00;99.90;;;;;;5002171;28;20559;-65
2022/01/04 06:07:23;;;;;;;1.20;0.82;;;9.00;99.90;;;;;;4998364;28;20054;-66
2022/01/04 06:09:52;;;;;;;0.80;0.80;;;8.90;99.90;;;;;;5003926;28;20079;-65
2022/01/04 06:15:14;;;;;;;1.63;0.95;;;8.90;99.90;;;;;;5002183;28;20029;-66
2022/01/04 06:17:47;;;;;;;1.25;0.80;;;8.90;99.90;;;;;;5003682;28;20393;-65
2022/01/04 06:20:15;;;;;;;1.77;0.80;;;9.00;99.90;;;;;;5001980;28;20129;-65
2022/01/04 06:22:41;;;;;;;0.77;0.77;;;9.00;99.90;;;;;;4999496;28;20058;-65
2022/01/04 06:25:17;;;;;;;1.20;0.80;;;9.00;99.90;;;;;;5001922;28;20070;-66
2022/01/04 06:27:45;;;;;;;1.10;0.70;;;9.00;99.90;;;;;;4999965;28;20034;-66
2022/01/04 06:30:22;;;;;;;0.70;0.70;;;9.00;99.90;;;;;;5004312;28;20110;-66
2022/01/04 06:32:48;;;;;;;1.60;0.80;;;9.00;99.90;;;;;;5003924;28;20030;-65
2022/01/04 06:35:14;;;;;;;2.88;0.73;;;9.00;99.90;;;;;;5002487;28;20279;-65
2022/01/04 06:37:41;;;;;;;1.10;0.77;;;9.00;99.90;;;;;;4999496;28;20026;-65
2022/01/04 06:40:16;;;;;;;0.68;0.68;;;9.10;99.90;;;;;;5004616;28;20160;-65
2022/01/04 06:42:42;;;;;;;0.93;0.70;;;9.00;99.90;;;;;;4997634;28;20018;-66
2022/01/04 06:45:16;;;;;;;0.68;0.68;;;9.00;99.90;;;;;;5001500;28;20037;-65
2022/01/04 06:47:42;;;;;;;1.35;0.70;;;9.00;99.90;;;;;;5016724;28;20173;-66
2022/01/04 06:50:18;;;;;;;1.27;0.98;;;9.00;99.90;;;;;;5001742;28;20533;-65
2022/01/04 06:52:44;;;;;;;0.60;0.60;;;9.00;99.90;;;;;;4996706;28;20062;-66
2022/01/04 06:55:16;;;;;;;0.50;0.50;;;9.00;99.90;;;;;;4999404;28;20064;-66
2022/01/04 06:57:42;;;;;;;0.70;0.57;;;9.00;99.90;;;;;;4995901;28;20038;-66
2022/01/04 07:00:09;;;;;;;1.30;0.70;;;9.00;99.90;;;;;;5000241;28;20018;-65
2022/01/04 07:02:34;;;;;;;0.80;0.60;;;9.00;99.90;;;;;;5002739;28;20036;-66
2022/01/04 07:05:00;;;;;;;1.33;0.60;;;8.90;99.90;;;;;;5000799;28;20425;-66
2022/01/04 07:07:26;;;;;;;1.00;0.70;;;9.00;99.90;;;;;;4998112;28;20058;-66
2022/01/04 07:09:51;;;;;;;0.50;0.50;;;9.00;99.90;;;;;;5004741;28;20512;-66
2022/01/04 07:12:17;;;;;;;0.60;0.60;;;9.00;99.90;;;;;;5002726;28;20022;-65
2022/01/04 07:14:49;;;;;;;0.60;0.60;;;8.90;99.90;;;;;;5005785;28;20022;-65
2022/01/04 07:17:20;;;;;;;2.53;0.75;;;9.00;99.90;;;;;;5002171;28;20069;-65
2022/01/04 07:19:47;;;;;;;0.70;0.60;;;8.90;99.90;;;;;;5006863;28;20026;-65
2022/01/04 07:22:12;;;;;;;0.73;0.60;;;8.90;99.90;;;;;;5004915;28;20571;-65
2022/01/04 07:24:38;;;;;;;0.65;0.65;;;9.00;99.90;;;;;;5007533;28;20037;-65
2022/01/04 07:27:05;;;;;;;0.70;0.70;;;9.00;99.90;;;;;;5003515;28;20018;-65
2022/01/04 07:29:30;;;;;;;0.70;0.70;;;9.00;99.90;;;;;;5009168;28;20037;-65
2022/01/04 07:31:56;;;;;;;0.80;0.75;;;8.90;99.90;;;;;;5000349;28;20034;-65
2022/01/04 07:34:21;;;;;;;0.60;0.60;;;9.00;99.90;;;;;;5003455;28;20034;-65
2022/01/04 07:36:47;;;;;;;0.60;0.60;;;8.90;99.90;;;;;;5004773;28;20042;-65
2022/01/04 07:39:22;;;;;;;0.65;0.65;;;8.90;99.90;;;;;;5007252;28;20428;-65
2022/01/04 07:41:48;;;;;;;0.90;0.60;;;9.00;99.90;;;;;;5001040;28;20041;-65
2022/01/04 07:44:23;;;;;;;1.10;0.90;;;9.00;99.90;;;;;;5006985;28;20046;-66
2022/01/04 07:46:48;;;;;;;0.70;0.70;;;9.00;99.90;;;;;;5021409;28;20505;-65
2022/01/04 07:49:23;;;;;;;1.33;0.70;;;9.00;99.90;;;;;;5003845;28;20072;-66
2022/01/04 07:51:49;;;;;;;0.75;0.65;;;9.10;99.90;;;;;;5006724;28;20030;-65
2022/01/04 07:54:23;;;;;;;0.65;0.57;;;9.10;99.90;;;;;;5004107;28;20091;-69
2022/01/04 07:56:49;;;;;;;0.60;0.60;;;9.10;99.90;;;;;;5002743;28;20034;-66
2022/01/04 07:59:28;;;;;;;0.70;0.70;;;9.10;99.90;;;;;;5003992;28;20080;-66
2022/01/04 08:01:53;;;;;;;0.68;0.63;;;9.20;99.90;;;;;;5022580;28;20032;-65
2022/01/04 08:04:19;;;;;;;0.95;0.80;;;9.20;99.90;;;;;;5004021;28;20030;-66
2022/01/04 08:06:44;;;;;;;3.55;1.75;;;9.20;99.90;;;;;;5002228;28;20109;-65
2022/01/04 08:09:25;;;;;;;0.90;0.77;;;9.20;99.90;;;;;;5005188;28;20105;-66
2022/01/04 08:11:51;;;;;;;0.90;0.70;;;9.30;99.90;;;;;;4999981;28;20034;-66
2022/01/04 08:14:26;;;;;;;0.95;0.80;;;9.20;99.90;;;;;;5003555;28;20066;-65
2022/01/04 08:16:53;;;;;;;1.20;0.93;;;9.30;99.90;;;;;;5002537;28;20421;-65
2022/01/04 08:19:25;;;;;;;1.15;1.05;;;9.20;99.90;;;;;;5004579;28;20045;-65
2022/01/04 08:21:50;;;;;;;1.13;1.00;;;9.20;99.90;;;;;;5004609;28;20060;-66
2022/01/04 08:24:28;;;;;;;1.08;0.90;;;9.30;99.90;;;;;;5007629;28;20022;-66
2022/01/04 08:26:53;;;;;;;1.45;0.80;;;9.30;99.90;;;;;;5003772;28;20022;-65
2022/01/04 08:29:19;;;;;;;1.27;1.00;;;9.30;99.90;;;;;;5004070;28;20513;-65
2022/01/04 08:31:45;;;;;;;0.80;0.80;;;9.30;99.90;;;;;;5001846;28;20958;-65
2022/01/04 08:34:14;;;;;;;1.58;0.80;;;9.30;99.90;;;;;;5005175;28;20978;-65
2022/01/04 08:36:39;;;;;;;1.33;1.15;;;9.30;99.90;;;;;;5002378;28;20038;-64
2022/01/04 08:39:14;;;;;;;1.88;0.90;;;9.40;99.90;;;;;;5002725;28;20026;-64
2022/01/04 08:41:54;;;;;;;1.30;1.08;;;9.40;99.90;;;;;;5004640;28;20139;-64
2022/01/04 08:44:20;;;;;;;1.00;0.85;;;9.40;99.90;;;;;;5001203;28;20057;-64
2022/01/04 08:46:46;;;;;;;0.98;0.77;;;9.50;99.90;;;;;;5001633;28;20080;-64
2022/01/04 08:49:14;;;;;;;1.48;1.00;;;9.50;99.90;;;;;;4997943;28;20398;-63
2022/01/04 08:51:40;;;;;;;0.93;0.82;;;9.50;99.90;;;;;;5003097;28;20045;-64
2022/01/04 08:54:15;;;;;;;1.02;0.88;;;9.60;99.90;;;;;;5003820;28;20109;-64
2022/01/04 08:56:40;;;;;;;1.10;0.90;;;9.60;99.90;;;;;;5003916;28;20034;-64
2022/01/04 08:59:15;;;;;;;1.13;0.80;;;9.60;99.90;;;;;;5006344;28;20565;-64
2022/01/04 09:01:41;;;;;;;1.25;1.00;;;9.60;99.90;;;;;;5003795;28;20506;-64
2022/01/04 09:04:16;;;;;;;1.73;0.90;;;9.70;99.90;;;;;;5001361;28;20290;-64
2022/01/04 09:06:41;;;;;;;1.45;0.82;;;9.70;99.90;;;;;;4998363;28;20486;-64
2022/01/04 09:09:16;;;;;;;1.50;0.93;;;9.70;99.90;;;;;;5004672;28;20097;-66
2022/01/04 09:11:43;;;;;;;1.10;0.70;;;9.80;99.90;;;;;;5002387;28;20069;-63
2022/01/04 09:19:48;;;;;;;1.80;0.75;;;9.80;99.90;;;;;;5003050;28;20053;-64
2022/01/04 09:22:14;;;;;;;0.98;0.80;;;9.80;99.90;;;;;;4999404;28;20034;-64
2022/01/04 09:24:49;;;;;;;1.48;0.77;;;9.80;99.90;;;;;;5005365;28;20041;-64
2022/01/04 09:27:14;;;;;;;2.25;0.93;;;9.80;99.90;;;;;;5002220;28;20030;-64
2022/01/04 09:29:40;;;;;;;1.45;0.80;;;9.80;99.90;;;;;;5003363;28;20088;-64
2022/01/04 09:32:07;;;;;;;0.70;0.70;;;9.80;99.90;;;;;;5001392;28;20024;-64
2022/01/04 09:34:51;;;;;;;1.05;0.70;;;9.80;99.90;;;;;;5004436;28;20109;-64
2022/01/04 09:37:19;;;;;;;0.70;0.60;;;9.70;99.90;;;;;;4998233;28;20528;-65
2022/01/04 09:39:52;;;;;;;0.85;0.70;;;9.70;99.90;;;;;;4999709;28;20038;-64
2022/01/04 09:42:21;;;;;;;0.77;0.75;;;9.80;99.90;;;;;;4998626;28;20056;-64
2022/01/04 09:44:50;;;;;;;1.25;0.80;;;9.80;99.90;;;;;;5000899;28;20105;-64
2022/01/04 09:47:16;;;;;;;1.02;0.82;;;9.80;99.90;;;;;;5007525;28;20555;-64
2022/01/04 09:49:51;;;;;;;3.17;0.90;;;9.80;99.90;;;;;;5004389;28;20033;-64
2022/01/04 09:52:21;;;;;;;1.17;0.80;;;9.90;99.90;;;;;;5002950;28;20030;-64
2022/01/04 09:54:54;;;;;;;0.70;0.60;;;9.90;99.90;;;;;;5003664;28;20069;-64
2022/01/04 09:57:20;;;;;;;0.50;0.50;;;9.90;99.90;;;;;;5000313;28;20053;-64
2022/01/04 09:59:46;;;;;;;0.70;0.70;;;10.00;99.90;;;;;;5003036;28;20077;-64
2022/01/04 10:02:17;;;;;;;0.50;0.50;;;10.00;99.90;;;;;;5003965;28;20038;-64
2022/01/04 10:04:44;;;;;;;0.50;0.50;;;10.00;99.90;;;;;;5001703;28;20062;-64
2022/01/04 10:07:10;;;;;;;0.77;0.60;;;10.10;99.90;;;;;;4999427;28;20706;-64
2022/01/04 10:09:37;;;;;;;0.50;0.50;;;10.10;99.90;;;;;;5002176;28;20689;-64
2022/01/04 10:12:05;;;;;;;0.60;0.60;;;10.10;99.90;;;;;;5002909;28;20049;-64
2022/01/04 10:14:53;;;;;;;0.90;0.60;;;10.20;99.90;;;;;;5003188;28;20029;-64
2022/01/04 10:17:28;;;;;;;0.60;0.50;;;10.20;99.90;;;;;;5000051;28;20036;-64
2022/01/04 10:19:57;;;;;;;0.43;0.43;;;10.30;99.90;;;;;;5000543;28;20073;-64
2022/01/04 10:22:34;;;;;;;0.50;0.50;;;10.30;99.90;;;;;;5019844;28;20053;-64
2022/01/04 10:25:03;;;;;;;0.60;0.60;;;10.30;99.90;;;;;;4998268;28;20495;-64
2022/01/04 10:27:34;;;;;;;0.70;0.60;;;10.40;99.90;;;;;;5001194;28;20034;-64
2022/01/04 10:30:28;;;;;;;1.45;0.60;;;10.40;99.90;;;;;;5000997;28;20501;-64
2022/01/04 10:33:13;;;;;;;0.60;0.60;;;10.40;99.90;;;;;;5017847;28;20034;-64
2022/01/04 10:35:42;;;;;;;1.20;0.70;;;10.40;99.90;;;;;;5003365;28;20054;-64
2022/01/04 10:38:20;;;;;;;2.05;0.63;;;10.40;99.90;;;;;;4996016;28;20044;-64
2022/01/04 10:41:01;;;;;;;1.92;0.70;;;10.40;99.90;;;;;;5000692;28;20113;-64
2022/01/04 10:43:35;;;;;;;0.70;0.57;;;10.40;99.90;;;;;;5004859;28;21122;-64
2022/01/04 10:46:02;;;;;;;2.92;0.80;;;10.40;99.90;;;;;;5007464;28;20371;-64
2022/01/04 10:48:30;;;;;;;0.70;0.50;;;10.30;99.90;;;;;;5006634;28;20038;-64
2022/01/04 10:51:08;;;;;;;1.10;0.55;;;10.40;99.90;;;;;;5009102;28;20029;-65
2022/01/04 10:53:44;;;;;;;0.70;0.50;;;10.40;99.90;;;;;;5009449;28;20038;-64
2022/01/04 10:56:24;;;;;;;0.80;0.80;;;10.40;99.90;;;;;;5009163;28;20072;-64
2022/01/04 10:58:53;;;;;;;0.98;0.50;;;10.40;99.90;;;;;;5009281;28;20030;-64
2022/01/04 11:01:25;;;;;;;0.57;0.55;;;10.40;99.90;;;;;;5006441;28;20258;-64
2022/01/04 11:04:15;;;;;;;1.00;0.68;;;10.40;99.90;;;;;;5007221;28;20118;-64
2022/01/04 11:06:42;;;;;;;0.40;0.40;;;10.40;99.90;;;;;;5009313;28;20087;-64
2022/01/04 11:09:15;;;;;;;0.50;0.50;;;10.50;99.90;;;;;;5009974;28;20143;-64
2022/01/04 11:11:42;;;;;;;0.50;0.50;;;10.50;99.90;;;;;;5004752;28;20034;-64
2022/01/04 11:14:16;;;;;;;0.50;0.50;;;10.50;99.90;;;;;;5011497;28;20943;-64
2022/01/04 11:16:43;;;;;;;0.40;0.40;;;10.50;99.90;;;;;;5007653;28;20030;-64
2022/01/04 11:19:19;;;;;;;0.35;0.35;;;10.60;99.90;;;;;;5007107;28;20136;-64
2022/01/04 11:21:45;;;;;;;0.50;0.50;;;10.60;99.90;;;;;;5002331;28;20027;-64
2022/01/04 11:24:16;;;;;;;0.75;0.50;;;10.60;99.90;;;;;;5008096;28;20072;-64
2022/01/04 11:26:46;;;;;;;0.95;0.50;;;10.50;99.90;;;;;;5010468;28;20121;-64
2022/01/04 11:29:16;;;;;;;1.35;0.52;;;10.50;99.90;;;;;;5008571;28;20053;-64
2022/01/04 11:31:57;;;;;;;0.40;0.40;;;10.50;99.90;;;;;;5009132;28;20445;-64
2022/01/04 11:34:29;;;;;;;2.10;0.63;;;10.50;99.90;;;;;;5009840;28;20489;-64
2022/01/04 11:36:55;;;;;;;0.50;0.50;;;10.40;99.90;;;;;;5004919;28;20086;-64
2022/01/04 11:39:47;;;;;;;4.47;0.50;;;10.40;99.90;;;;;;4986889;28;20026;-65
2022/01/04 11:42:34;;;;;;;0.50;0.50;;;10.40;99.90;;;;;;5009763;28;20018;-64
2022/01/04 11:45:01;;;;;;;0.40;0.40;;;10.40;99.90;;;;;;5006443;28;20394;-64
2022/01/04 11:47:29;;;;;;;0.43;0.40;;;10.40;99.90;;;;;;5009776;28;20092;-64
2022/01/04 11:50:15;;;;;;;0.47;0.47;;;10.40;99.90;;;;;;5006474;28;20680;-64
2022/01/04 11:52:48;;;;;;;0.47;0.47;;;10.40;99.90;;;;;;5006760;28;20440;-64
2022/01/04 11:55:25;;;;;;;1.10;0.50;;;10.50;99.90;;;;;;5008871;28;20458;-64
2022/01/04 11:57:54;;;;;;;0.50;0.50;;;10.50;99.90;;;;;;5000489;28;20093;-65
2022/01/04 12:00:32;;;;;;;0.40;0.40;;;10.50;99.90;;;;;;5004474;28;20109;-65
2022/01/04 12:03:02;;;;;;;0.40;0.40;;;10.50;99.90;;;;;;5007010;28;20022;-64
2022/01/04 12:05:27;;;;;;;0.70;0.50;;;10.50;99.90;;;;;;5001900;28;20033;-64
2022/01/04 12:07:55;;;;;;;0.95;0.60;;;10.60;99.90;;;;;;5003157;28;20409;-64
2022/01/04 12:10:21;;;;;;;0.50;0.50;;;10.60;99.90;;;;;;5005375;28;20030;-64
2022/01/04 12:13:04;;;;;;;0.68;0.60;;;10.60;99.90;;;;;;5004677;28;20030;-64
2022/01/04 12:15:36;;;;;;;1.15;0.50;;;10.60;99.90;;;;;;5000088;28;20089;-64
2022/01/04 12:18:33;;;;;;;0.60;0.40;;;10.70;99.90;;;;;;5004086;28;20370;-65
2022/01/04 12:21:26;;;;;;;5.03;0.65;;;10.70;99.90;;;;;;5005912;28;20030;-64
2022/01/04 12:23:53;;;;;;;0.50;0.50;;;10.70;99.90;;;;;;4987461;28;20034;-64
2022/01/04 12:26:32;;;;;;;0.40;0.40;;;10.80;99.90;;;;;;5007350;28;20045;-64
2022/01/04 12:28:58;;;;;;;1.15;0.55;;;10.80;99.90;;;;;;4999631;28;20026;-64
2022/01/04 12:31:28;;;;;;;0.45;0.40;;;10.80;99.90;;;;;;5003205;28;20461;-64
2022/01/04 12:33:58;;;;;;;2.83;0.50;;;10.80;99.90;;;;;;5004694;28;20030;-64
2022/01/04 12:36:33;;;;;;;1.23;0.50;;;10.80;99.90;;;;;;5004422;28;20025;-64
2022/01/04 12:39:23;;;;;;;1.35;1.05;;;10.80;99.90;;;;;;5002570;28;20029;-64
2022/01/04 12:41:55;;;;;;;2.45;0.70;;;10.80;99.90;;;;;;4979377;28;20050;-64
2022/01/04 12:44:29;;;;;;;0.60;0.60;;;10.80;99.90;;;;;;5004556;28;20026;-65
2022/01/04 12:46:56;;;;;;;0.73;0.70;;;10.70;99.90;;;;;;5003290;28;20497;-64
2022/01/04 12:49:28;;;;;;;5.43;1.00;;;10.60;99.90;;;;;;5003091;28;20092;-64
2022/01/04 12:51:59;;;;;;;0.88;0.80;;;10.50;99.90;;;;;;5005394;28;20037;-64
2022/01/04 12:54:31;;;;;;;2.70;1.15;;;10.50;99.90;;;;;;5004816;28;20222;-64
2022/01/04 12:57:04;;;;;;;1.10;1.00;;;10.30;99.90;;;;;;5004673;28;20108;-64
2022/01/04 12:59:44;;;;;;;1.05;0.95;;;10.30;99.90;;;;;;5002958;28;20121;-65
2022/01/04 13:02:16;;;;;;;0.82;0.82;;;10.20;99.90;;;;;;5000440;28;20022;-64
2022/01/04 13:04:48;;;;;;;2.00;0.60;;;10.10;99.90;;;;;;5000348;28;20026;-64
2022/01/04 13:07:21;;;;;;;0.95;0.80;;;10.00;99.90;;;;;;5000847;28;21004;-64
2022/01/04 13:10:05;;;;;;;1.27;0.73;;;9.90;99.90;;;;;;5002332;28;20038;-64
2022/01/04 13:12:39;;;;;;;1.20;1.10;;;9.80;99.90;;;;;;5001528;28;20046;-64
2022/01/04 13:15:17;;;;;;;1.70;0.75;;;9.80;99.90;;;;;;5004355;28;20021;-64
2022/01/04 13:17:45;;;;;;;2.38;0.90;;;9.70;99.90;;;;;;5001859;28;20041;-64